Time;durP1;ratioP1;P1;durP2;ratioP2;P2;SDS_P1;SDS_P2;PMS_P1;PMS_P2;Temp;Humidity;BMP_temperature;BMP_pressure;BME280_temperature;BME280_humidity;BME280_pressure;Samples;Min_cycle;Max_cycle;Signal;HPM_P1;HPM_P2
2024/03/05 00:01:59;;;;;;;0.30;0.30;;;;;;;6.92;68.26;101369.88;5067801;28;20491;-77
2024/03/05 00:04:26;;;;;;;0.20;0.20;;;;;;;6.92;68.89;101369.00;5070993;28;20391;-77
2024/03/05 00:06:52;;;;;;;0.10;0.10;;;;;;;6.92;68.55;101374.28;5068862;28;20016;-78
2024/03/05 00:09:18;;;;;;;0.40;0.40;;;;;;;6.91;68.63;101377.78;5070203;28;20125;-77
2024/03/05 00:11:45;;;;;;;0.10;0.10;;;;;;;6.91;68.91;101383.03;5067605;28;20035;-77
2024/03/05 00:14:11;;;;;;;0.10;0.10;;;;;;;6.89;68.92;101376.88;5068084;28;20028;-77
2024/03/05 00:16:37;;;;;;;0.10;0.10;;;;;;;6.87;69.67;101376.00;5068221;28;20036;-77
2024/03/05 00:19:04;;;;;;;0.10;0.10;;;;;;;6.85;68.50;101370.72;5071259;28;20070;-78
2024/03/05 00:21:31;;;;;;;0.10;0.10;;;;;;;6.85;69.26;101383.03;5071342;28;20142;-78
2024/03/05 00:23:58;;;;;;;0.20;0.20;;;;;;;6.85;68.71;101377.75;5066798;28;20059;-77
2024/03/05 00:26:25;;;;;;;0.20;0.20;;;;;;;6.83;68.42;101368.94;5065585;28;20389;-78
2024/03/05 00:28:54;;;;;;;0.10;0.10;;;;;;;6.81;68.90;101374.22;5068008;28;20041;-78
2024/03/05 00:31:21;;;;;;;0.20;0.20;;;;;;;6.80;69.12;101375.09;5069680;28;20052;-78
2024/03/05 00:33:48;;;;;;;0.13;0.13;;;;;;;6.80;68.70;101370.72;5069619;28;20033;-79
2024/03/05 00:36:14;;;;;;;0.20;0.20;;;;;;;6.76;69.61;101368.06;5068510;28;20115;-78
2024/03/05 00:38:41;;;;;;;2.17;1.98;;;;;;;6.75;69.58;101372.47;5066987;28;20035;-77
2024/03/05 00:41:07;;;;;;;23.88;1.27;;;;;;;6.76;69.02;101375.97;5068687;28;20064;-77
2024/03/05 00:43:34;;;;;;;0.25;0.25;;;;;;;6.76;68.98;101373.31;5067510;28;20039;-78
2024/03/05 00:46:01;;;;;;;0.20;0.20;;;;;;;6.78;68.96;101375.09;5065163;28;20025;-77
2024/03/05 00:48:28;;;;;;;0.50;0.50;;;;;;;6.77;68.97;101375.97;5063615;28;20033;-76
2024/03/05 00:50:54;;;;;;;1.27;0.82;;;;;;;6.74;69.51;101381.22;5069143;28;20061;-76
2024/03/05 00:53:21;;;;;;;0.10;0.10;;;;;;;6.72;68.85;101377.69;5068874;28;20032;-77
2024/03/05 00:55:47;;;;;;;0.20;0.20;;;;;;;6.69;68.61;101372.44;5066157;28;20055;-77
2024/03/05 00:58:14;;;;;;;0.10;0.10;;;;;;;6.66;69.27;101376.81;5066183;28;20032;-77
2024/03/05 01:00:40;;;;;;;0.63;0.63;;;;;;;6.62;69.59;101368.88;5062671;28;20029;-77
2024/03/05 01:03:06;;;;;;;0.30;0.30;;;;;;;6.61;69.36;101380.28;5067544;28;20033;-77
2024/03/05 01:05:32;;;;;;;0.28;0.28;;;;;;;6.60;69.16;101377.63;5070416;28;20040;-76
2024/03/05 01:07:59;;;;;;;0.38;0.38;;;;;;;6.60;69.24;101382.91;5072213;28;20115;-77
2024/03/05 01:10:25;;;;;;;0.82;0.57;;;;;;;6.60;69.27;101373.28;5067633;28;20063;-77
2024/03/05 01:12:56;;;;;;;0.10;0.10;;;;;;;6.61;69.19;101368.88;5069378;28;20040;-77
2024/03/05 01:15:23;;;;;;;0.10;0.10;;;;;;;6.62;69.24;101366.25;5067285;28;20038;-76
2024/03/05 01:17:51;;;;;;;0.10;0.10;;;;;;;6.64;68.72;101363.59;5069382;28;20028;-77
2024/03/05 01:20:18;;;;;;;0.20;0.20;;;;;;;6.64;69.34;101358.34;5069749;28;20138;-77
2024/03/05 01:22:46;;;;;;;0.30;0.30;;;;;;;6.63;69.20;101362.75;5068777;28;20024;-77
2024/03/05 01:25:12;;;;;;;0.10;0.10;;;;;;;6.63;69.39;101356.59;5066853;28;20032;-77
2024/03/05 01:27:39;;;;;;;0.40;0.40;;;;;;;6.62;68.63;101354.84;5068733;28;20028;-77
2024/03/05 01:30:11;;;;;;;0.15;0.15;;;;;;;6.62;69.10;101352.22;5070760;28;20055;-78
2024/03/05 01:32:38;;;;;;;0.27;0.27;;;;;;;6.63;69.48;101354.84;5069216;28;20391;-78
2024/03/05 01:35:10;;;;;;;0.10;0.10;;;;;;;6.63;69.24;101351.34;5073440;28;20306;-77
2024/03/05 01:37:38;;;;;;;0.10;0.10;;;;;;;6.62;68.95;101355.72;5069100;28;20028;-78
2024/03/05 01:40:05;;;;;;;0.20;0.20;;;;;;;6.60;69.04;101344.31;5072881;28;20048;-78
2024/03/05 01:42:32;;;;;;;0.20;0.20;;;;;;;6.60;69.14;101343.41;5066478;28;20112;-77
2024/03/05 01:44:58;;;;;;;0.10;0.10;;;;;;;6.58;69.27;101347.78;5073127;28;20028;-77
2024/03/05 01:47:26;;;;;;;1.40;1.30;;;;;;;6.58;69.18;101347.78;5068510;28;20035;-78
2024/03/05 01:49:54;;;;;;;0.85;0.85;;;;;;;6.56;68.77;101339.00;5071967;28;20117;-78
2024/03/05 01:52:21;;;;;;;0.13;0.13;;;;;;;6.55;69.64;101342.50;5074799;28;20032;-78
2024/03/05 01:54:49;;;;;;;0.10;0.10;;;;;;;6.52;69.18;101337.22;5073338;28;20029;-78
2024/03/05 01:57:16;;;;;;;0.10;0.10;;;;;;;6.52;70.00;101347.75;5087593;28;20020;-77
2024/03/05 01:59:42;;;;;;;0.38;0.38;;;;;;;6.51;68.75;101335.47;5092759;28;20039;-78
2024/03/05 02:02:11;;;;;;;0.10;0.10;;;;;;;6.53;69.19;101336.34;5083685;28;20056;-78
2024/03/05 02:04:39;;;;;;;0.10;0.10;;;;;;;6.51;68.91;101336.34;5074490;28;20020;-77
2024/03/05 02:07:06;;;;;;;0.10;0.10;;;;;;;6.52;69.47;101345.13;5073362;28;20170;-77
2024/03/05 02:09:33;;;;;;;0.10;0.10;;;;;;;6.49;69.95;101338.09;5071873;28;20035;-77
2024/03/05 02:12:00;;;;;;;0.10;0.10;;;;;;;6.50;69.62;101341.63;5071196;28;20389;-77
2024/03/05 02:14:27;;;;;;;0.10;0.10;;;;;;;6.46;69.48;101344.22;5068042;28;20048;-77
2024/03/05 02:16:56;;;;;;;1.67;1.45;;;;;;;6.47;69.71;101340.72;5067944;28;20032;-76
2024/03/05 02:19:22;;;;;;;0.10;0.10;;;;;;;6.46;70.09;101338.94;5068752;28;20034;-76
2024/03/05 02:21:55;;;;;;;0.20;0.20;;;;;;;6.43;70.69;101338.94;5068800;28;20037;-76
2024/03/05 02:24:21;;;;;;;0.10;0.10;;;;;;;6.44;70.19;101340.72;5070563;28;20040;-76
2024/03/05 02:26:48;;;;;;;0.10;0.10;;;;;;;6.41;69.87;101345.94;5064559;28;20099;-77
2024/03/05 02:29:14;;;;;;;0.10;0.10;;;;;;;6.40;69.57;101346.81;5066324;28;20028;-76
2024/03/05 02:31:40;;;;;;;0.30;0.30;;;;;;;6.39;69.77;101341.56;5068821;28;20402;-76
2024/03/05 02:34:07;;;;;;;0.10;0.10;;;;;;;6.36;69.24;101347.69;5070786;28;20036;-79
2024/03/05 02:36:33;;;;;;;0.25;0.25;;;;;;;6.33;69.39;101342.41;5062284;28;20040;-78
2024/03/05 02:38:59;;;;;;;0.10;0.10;;;;;;;6.31;69.56;101349.41;5070111;28;20522;-78
2024/03/05 02:41:26;;;;;;;0.10;0.10;;;;;;;6.31;69.72;101349.41;5070972;28;20028;-77
2024/03/05 02:43:52;;;;;;;0.10;0.10;;;;;;;6.33;69.68;101345.06;5072351;28;20063;-77
2024/03/05 02:46:18;;;;;;;0.10;0.10;;;;;;;6.36;69.50;101344.19;5070011;28;20013;-78
2024/03/05 02:48:44;;;;;;;0.10;0.10;;;;;;;6.40;70.07;101349.44;5073487;28;20391;-78
2024/03/05 02:51:11;;;;;;;0.10;0.10;;;;;;;6.45;70.41;101339.81;5071349;28;20024;-77
2024/03/05 02:53:37;;;;;;;0.10;0.10;;;;;;;6.50;70.37;101345.13;5074047;28;20071;-78
2024/03/05 02:56:04;;;;;;;0.28;0.28;;;;;;;6.56;70.73;101344.28;5074597;28;20047;-78
2024/03/05 02:58:31;;;;;;;0.10;0.10;;;;;;;6.62;70.59;101333.78;5071480;28;20021;-78
2024/03/05 03:00:57;;;;;;;0.10;0.10;;;;;;;6.69;70.68;101329.41;5073999;28;20020;-78
2024/03/05 03:03:23;;;;;;;0.10;0.10;;;;;;;6.75;70.81;101325.06;5073862;28;20081;-78
2024/03/05 03:05:49;;;;;;;0.10;0.10;;;;;;;6.85;70.66;101328.56;5073443;28;20071;-76
2024/03/05 03:08:17;;;;;;;0.75;0.75;;;;;;;6.90;70.20;101323.31;5073955;28;20020;-78
2024/03/05 03:10:43;;;;;;;0.93;0.43;;;;;;;6.95;70.75;101327.75;5071919;28;20028;-78
2024/03/05 03:13:10;;;;;;;0.10;0.10;;;;;;;7.00;70.59;101327.75;5068918;28;20068;-77
2024/03/05 03:15:36;;;;;;;1.75;0.55;;;;;;;7.07;70.41;101326.88;5067709;28;20055;-77
2024/03/05 03:18:04;;;;;;;0.10;0.10;;;;;;;7.12;70.29;101334.81;5070869;28;20039;-77
2024/03/05 03:20:32;;;;;;;0.10;0.10;;;;;;;7.18;70.22;101333.94;5069431;28;20137;-77
2024/03/05 03:22:58;;;;;;;0.10;0.10;;;;;;;7.20;70.67;101338.34;5074556;28;20055;-77
2024/03/05 03:25:25;;;;;;;0.10;0.10;;;;;;;7.27;70.75;101339.22;5071060;28;20024;-78
2024/03/05 03:27:51;;;;;;;0.10;0.10;;;;;;;7.33;70.65;101339.25;5068001;28;20040;-77
2024/03/05 03:30:17;;;;;;;0.10;0.10;;;;;;;7.38;70.51;101332.22;5069435;28;20028;-77
2024/03/05 03:32:45;;;;;;;0.47;0.47;;;;;;;7.45;71.16;101336.63;5070468;28;20036;-78
2024/03/05 03:35:13;;;;;;;0.63;0.63;;;;;;;7.50;70.70;101347.19;5074128;28;20039;-78
2024/03/05 03:37:41;;;;;;;1.02;1.02;;;;;;;7.53;71.05;101341.88;5072236;28;20027;-78
2024/03/05 03:40:17;;;;;;;0.10;0.10;;;;;;;7.57;71.14;101337.50;5071101;28;20047;-77
2024/03/05 03:42:45;;;;;;;0.38;0.38;;;;;;;7.64;71.17;101334.00;5068281;28;20498;-77
2024/03/05 03:45:13;;;;;;;0.10;0.10;;;;;;;7.70;70.63;101338.38;5064088;28;20043;-79
2024/03/05 03:47:39;;;;;;;0.10;0.10;;;;;;;7.73;70.69;101336.63;5066560;28;20062;-79
2024/03/05 03:50:07;;;;;;;0.10;0.10;;;;;;;7.80;70.65;101336.63;5069418;28;20028;-78
2024/03/05 03:52:34;;;;;;;1.85;1.75;;;;;;;7.85;71.26;101343.66;5070318;28;20029;-78
2024/03/05 03:55:00;;;;;;;0.10;0.10;;;;;;;7.89;70.50;101339.25;5063976;28;20085;-78
2024/03/05 03:57:26;;;;;;;4.80;0.70;;;;;;;7.92;70.66;101329.59;5069784;28;20073;-78
2024/03/05 03:59:54;;;;;;;0.20;0.20;;;;;;;7.98;70.88;101333.97;5068188;28;20086;-78
2024/03/05 04:02:21;;;;;;;0.10;0.10;;;;;;;8.02;70.98;101335.69;5067412;28;20032;-79
2024/03/05 04:04:48;;;;;;;0.40;0.40;;;;;;;8.06;71.19;101331.31;5067535;28;20021;-81
2024/03/05 04:07:18;;;;;;;0.10;0.10;;;;;;;8.12;70.73;101330.44;5075774;28;20063;-80
2024/03/05 04:09:44;;;;;;;0.10;0.10;;;;;;;8.15;70.78;101340.97;5076463;28;20028;-81
2024/03/05 04:12:13;;;;;;;0.45;0.45;;;;;;;8.18;70.73;101333.06;5074780;28;20035;-79
2024/03/05 04:14:40;;;;;;;0.17;0.17;;;;;;;8.21;71.04;101335.66;5074880;28;20036;-80
2024/03/05 04:17:06;;;;;;;0.30;0.30;;;;;;;8.24;70.87;101340.97;5072655;28;20518;-79
2024/03/05 04:19:33;;;;;;;0.13;0.13;;;;;;;8.25;70.67;101342.72;5072980;28;20103;-79
2024/03/05 04:22:00;;;;;;;0.20;0.20;;;;;;;8.25;70.55;101338.31;5070915;28;20032;-77
2024/03/05 04:24:26;;;;;;;0.20;0.20;;;;;;;8.29;70.45;101338.28;5066704;28;20093;-78
2024/03/05 04:26:53;;;;;;;0.10;0.10;;;;;;;8.30;70.72;101340.94;5071789;28;20082;-78
2024/03/05 04:29:20;;;;;;;0.10;0.10;;;;;;;8.33;71.00;101337.41;5070412;28;20029;-78
2024/03/05 04:32:05;;;;;;;2.63;2.53;;;;;;;8.34;71.00;101347.97;5071150;28;20047;-77
2024/03/05 04:34:31;;;;;;;0.10;0.10;;;;;;;8.35;70.41;101347.09;5070908;28;20088;-77
2024/03/05 04:36:58;;;;;;;0.20;0.20;;;;;;;8.37;70.67;101347.06;5068634;28;20032;-78
2024/03/05 04:39:24;;;;;;;0.20;0.20;;;;;;;8.37;70.39;101345.34;5075599;28;20392;-78
2024/03/05 04:41:50;;;;;;;0.30;0.30;;;;;;;8.39;70.60;101345.31;5078366;28;20032;-78
2024/03/05 04:44:16;;;;;;;0.30;0.30;;;;;;;8.41;70.61;101357.63;5078924;28;20034;-78
2024/03/05 04:46:42;;;;;;;0.20;0.20;;;;;;;8.42;70.50;101342.66;5079446;28;20059;-79
2024/03/05 04:49:09;;;;;;;0.10;0.10;;;;;;;8.45;70.76;101344.41;5086721;28;20043;-79
2024/03/05 04:51:35;;;;;;;0.10;0.10;;;;;;;8.47;70.70;101347.97;5077223;28;20094;-79
2024/03/05 04:54:01;;;;;;;0.10;0.10;;;;;;;8.48;70.92;101342.66;5076784;28;20032;-78
2024/03/05 04:56:28;;;;;;;0.88;0.88;;;;;;;8.52;70.68;101343.53;5073112;28;20024;-79
2024/03/05 04:58:54;;;;;;;0.10;0.10;;;;;;;8.53;70.24;101340.03;5077945;28;20036;-80
2024/03/05 05:01:20;;;;;;;0.20;0.20;;;;;;;8.53;70.64;101343.53;5077060;28;20111;-80
2024/03/05 05:03:46;;;;;;;0.08;0.08;;;;;;;8.57;70.12;101344.41;5078200;28;20116;-80
2024/03/05 05:06:13;;;;;;;0.10;0.10;;;;;;;8.58;70.62;101346.16;5069439;28;20036;-80
2024/03/05 05:08:39;;;;;;;0.20;0.20;;;;;;;8.58;70.16;101339.13;5069922;28;20123;-79
2024/03/05 05:11:06;;;;;;;0.10;0.10;;;;;;;8.59;70.67;101342.66;5075305;28;20036;-79
2024/03/05 05:13:32;;;;;;;0.10;0.10;;;;;;;8.61;70.23;101340.88;5074855;28;20503;-79
2024/03/05 05:15:59;;;;;;;0.95;0.82;;;;;;;8.59;70.50;101342.66;5068001;28;20028;-79
2024/03/05 05:18:25;;;;;;;0.30;0.30;;;;;;;8.57;70.36;101345.28;5077037;28;20036;-78
2024/03/05 05:20:51;;;;;;;0.20;0.20;;;;;;;8.58;70.50;101346.16;5067812;28;20133;-79
2024/03/05 05:23:17;;;;;;;0.10;0.10;;;;;;;8.58;70.09;101347.06;5075331;28;20036;-78
2024/03/05 05:25:44;;;;;;;2.33;0.80;;;;;;;8.59;70.17;101345.28;5073963;28;20032;-79
2024/03/05 05:28:11;;;;;;;4.47;0.73;;;;;;;8.58;70.42;101347.06;5074087;28;20036;-79
2024/03/05 05:30:37;;;;;;;0.10;0.10;;;;;;;8.61;70.13;101351.44;5072181;28;20443;-79
2024/03/05 05:33:03;;;;;;;0.10;0.10;;;;;;;8.61;70.43;101351.44;5072444;28;20037;-78
2024/03/05 05:35:30;;;;;;;0.55;0.55;;;;;;;8.62;70.38;101350.53;5065585;28;20036;-78
2024/03/05 05:37:57;;;;;;;0.10;0.10;;;;;;;8.64;70.17;101351.44;5075794;28;20039;-79
2024/03/05 05:40:24;;;;;;;1.58;1.48;;;;;;;8.66;70.50;101348.78;5073783;28;20059;-79
2024/03/05 05:42:51;;;;;;;0.40;0.40;;;;;;;8.68;70.48;101350.53;5072849;28;20024;-79
2024/03/05 05:45:17;;;;;;;0.63;0.63;;;;;;;8.69;70.20;101351.41;5073229;28;20036;-80
2024/03/05 05:47:51;;;;;;;0.10;0.10;;;;;;;8.71;70.30;101345.25;5072995;28;20025;-78
2024/03/05 05:50:18;;;;;;;0.28;0.28;;;;;;;8.72;70.51;101349.66;5073913;28;20037;-80
2024/03/05 05:52:46;;;;;;;0.17;0.17;;;;;;;8.72;70.71;101341.72;5071634;28;20036;-80
2024/03/05 05:55:15;;;;;;;0.20;0.20;;;;;;;8.73;70.12;101346.13;5074280;28;20035;-81
2024/03/05 05:57:44;;;;;;;0.10;0.10;;;;;;;8.74;70.42;101342.56;5074326;28;20032;-78
2024/03/05 06:00:22;;;;;;;0.10;0.10;;;;;;;8.74;70.11;101347.84;5074854;28;20399;-80
2024/03/05 06:02:51;;;;;;;4.10;2.92;;;;;;;8.78;69.88;101353.13;5073305;28;20116;-79
2024/03/05 06:05:28;;;;;;;0.10;0.10;;;;;;;8.79;70.36;101355.75;5070030;28;20040;-80
2024/03/05 06:07:54;;;;;;;0.10;0.10;;;;;;;8.78;70.01;101355.78;5075005;28;20102;-80
2024/03/05 06:10:22;;;;;;;0.20;0.20;;;;;;;8.76;70.01;101362.81;5074629;28;20044;-79
2024/03/05 06:12:51;;;;;;;0.10;0.10;;;;;;;8.77;70.21;101361.94;5075379;28;20499;-80
2024/03/05 06:15:18;;;;;;;0.15;0.15;;;;;;;8.76;69.97;101362.81;5074840;28;20046;-79
2024/03/05 06:17:45;;;;;;;4.47;0.88;;;;;;;8.79;69.91;101370.75;5073109;28;20040;-79
2024/03/05 06:20:13;;;;;;;0.10;0.10;;;;;;;8.81;70.49;101374.25;5069635;28;20032;-78
2024/03/05 06:22:41;;;;;;;1.75;1.65;;;;;;;8.85;70.22;101370.72;5074408;28;20117;-78
2024/03/05 06:25:08;;;;;;;0.30;0.30;;;;;;;8.87;70.13;101379.50;5076929;28;20392;-78
2024/03/05 06:27:38;;;;;;;0.20;0.20;;;;;;;8.92;70.38;101377.72;5074468;28;20028;-79
2024/03/05 06:30:13;;;;;;;0.10;0.10;;;;;;;8.94;70.47;101375.97;5075792;28;20051;-78
2024/03/05 06:32:46;;;;;;;0.10;0.10;;;;;;;8.97;70.19;101377.72;5076627;28;20029;-78
2024/03/05 06:35:14;;;;;;;0.40;0.40;;;;;;;8.96;70.57;101379.47;5060545;28;20040;-79
2024/03/05 06:37:43;;;;;;;0.35;0.32;;;;;;;8.99;70.24;101382.09;5073699;28;20040;-80
2024/03/05 06:40:11;;;;;;;0.10;0.10;;;;;;;9.02;70.67;101379.47;5071168;28;20037;-79
2024/03/05 06:42:38;;;;;;;0.85;0.85;;;;;;;9.04;70.70;101385.59;5072401;28;20028;-80
2024/03/05 06:45:08;;;;;;;0.88;0.88;;;;;;;9.08;70.52;101378.53;5072353;28;20078;-80
2024/03/05 06:47:56;;;;;;;0.20;0.20;;;;;;;9.09;70.46;101385.56;5075224;28;20033;-80
2024/03/05 06:50:23;;;;;;;0.10;0.10;;;;;;;9.12;70.85;101387.31;5074535;28;20037;-80
2024/03/05 06:58:24;;;;;;;1.20;1.20;;;;;;;9.20;70.21;101382.88;5071881;28;20029;-78
2024/03/05 07:00:50;;;;;;;0.10;0.10;;;;;;;9.21;70.57;101379.34;5070616;28;20032;-79
2024/03/05 07:03:17;;;;;;;0.10;0.10;;;;;;;9.23;70.27;101383.75;5072666;28;20552;-80
2024/03/05 07:05:43;;;;;;;0.52;0.52;;;;;;;9.26;70.46;101385.50;5071429;28;20060;-79
2024/03/05 07:08:09;;;;;;;0.43;0.43;;;;;;;9.27;70.69;101383.72;5075552;28;20111;-79
2024/03/05 07:10:36;;;;;;;0.90;0.90;;;;;;;9.27;70.53;101395.19;5068952;28;20028;-78
2024/03/05 07:13:02;;;;;;;0.30;0.30;;;;;;;9.25;70.86;101406.66;5071154;28;20093;-79
2024/03/05 07:15:29;;;;;;;0.10;0.10;;;;;;;9.26;70.49;101419.88;5070940;28;20101;-79
2024/03/05 07:17:56;;;;;;;1.58;1.05;;;;;;;9.22;70.91;101419.00;5073031;28;20141;-78
2024/03/05 07:20:24;;;;;;;0.73;0.73;;;;;;;9.24;70.93;101411.06;5082215;28;20047;-77
2024/03/05 07:22:52;;;;;;;0.82;0.43;;;;;;;9.26;70.87;101417.22;5085223;28;20028;-77
2024/03/05 07:25:22;;;;;;;3.13;1.95;;;;;;;9.29;71.03;101422.47;5083045;28;20039;-77
2024/03/05 07:27:49;;;;;;;1.42;1.33;;;;;;;9.32;70.80;101413.66;5083674;28;20036;-77
2024/03/05 07:30:18;;;;;;;1.05;1.05;;;;;;;9.34;70.68;101415.41;5084803;28;20039;-77
2024/03/05 07:32:45;;;;;;;0.17;0.17;;;;;;;9.36;70.93;101415.41;5083226;28;20044;-78
2024/03/05 07:35:13;;;;;;;5.22;1.10;;;;;;;9.39;70.63;101415.38;5091528;28;20114;-77
2024/03/05 07:37:44;;;;;;;0.10;0.10;;;;;;;9.39;70.70;101411.00;5087554;28;20052;-78
2024/03/05 07:40:22;;;;;;;1.55;1.45;;;;;;;9.43;70.74;101410.94;5089141;28;20025;-78
2024/03/05 07:42:51;;;;;;;0.45;0.45;;;;;;;9.43;71.17;101406.53;5079027;28;20082;-77
2024/03/05 07:45:19;;;;;;;3.20;0.85;;;;;;;9.48;70.96;101403.88;5076896;28;20027;-78
2024/03/05 07:47:47;;;;;;;0.35;0.35;;;;;;;9.49;70.87;101401.19;5073376;28;20105;-77
2024/03/05 07:50:14;;;;;;;0.20;0.20;;;;;;;9.53;71.02;101400.31;5075631;28;20037;-78
2024/03/05 07:52:42;;;;;;;0.22;0.22;;;;;;;9.57;70.95;101393.25;5076298;28;20036;-78
2024/03/05 07:55:14;;;;;;;0.10;0.10;;;;;;;9.61;71.00;101394.97;5072956;28;20032;-77
2024/03/05 07:57:41;;;;;;;0.93;0.85;;;;;;;9.62;71.01;101395.81;5072598;28;20031;-78
2024/03/05 08:00:12;;;;;;;0.10;0.10;;;;;;;9.63;71.03;101401.13;5074535;28;20108;-79
2024/03/05 08:02:43;;;;;;;0.40;0.40;;;;;;;9.64;70.86;101397.56;5075215;28;20032;-79
2024/03/05 08:05:10;;;;;;;0.70;0.70;;;;;;;9.67;70.78;101400.22;5077134;28;20043;-80
2024/03/05 08:07:37;;;;;;;0.10;0.10;;;;;;;9.70;70.76;101404.59;5075123;28;20020;-79
2024/03/05 08:10:07;;;;;;;0.43;0.43;;;;;;;9.74;70.80;101408.09;5074716;28;20085;-79
2024/03/05 08:12:35;;;;;;;0.82;0.82;;;;;;;9.76;70.92;101424.81;5076388;28;20041;-79
2024/03/05 08:15:03;;;;;;;0.10;0.10;;;;;;;9.74;71.24;101427.50;5079728;28;20522;-78
2024/03/05 08:17:33;;;;;;;3.33;0.75;;;;;;;9.71;71.36;101423.09;5077815;28;20514;-78
2024/03/05 08:19:59;;;;;;;0.05;0.05;;;;;;;9.71;71.15;101420.47;5077735;28;20138;-79
2024/03/05 08:22:26;;;;;;;0.10;0.10;;;;;;;9.74;71.34;101430.13;5078607;28;20113;-78
2024/03/05 08:24:52;;;;;;;1.10;0.88;;;;;;;9.78;71.06;101433.66;5079296;28;20388;-78
2024/03/05 08:27:18;;;;;;;0.70;0.70;;;;;;;9.79;71.39;101430.13;5076520;28;20024;-78
2024/03/05 08:29:49;;;;;;;0.17;0.17;;;;;;;9.82;71.37;101428.31;5075568;28;20496;-78
2024/03/05 08:32:16;;;;;;;0.60;0.60;;;;;;;9.82;71.31;101427.44;5074055;28;20052;-77
2024/03/05 08:34:43;;;;;;;0.15;0.15;;;;;;;9.84;71.44;101428.31;5072723;28;20399;-78
2024/03/05 08:37:11;;;;;;;0.40;0.40;;;;;;;9.86;71.19;101431.84;5071915;28;20021;-78
2024/03/05 08:39:39;;;;;;;0.35;0.35;;;;;;;9.90;71.65;101440.63;5073654;28;20602;-78
2024/03/05 08:42:08;;;;;;;2.63;1.27;;;;;;;9.96;71.39;101443.22;5073940;28;20058;-78
2024/03/05 08:44:34;;;;;;;0.10;0.10;;;;;;;9.99;71.36;101438.78;5073573;28;20687;-78
2024/03/05 08:47:00;;;;;;;0.20;0.20;;;;;;;10.04;71.27;101441.38;5074791;28;20093;-77
2024/03/05 08:49:26;;;;;;;0.10;0.10;;;;;;;10.07;71.73;101443.13;5076104;28;20078;-80
2024/03/05 08:51:54;;;;;;;1.13;1.13;;;;;;;10.10;71.63;101456.34;5074660;28;20097;-77
2024/03/05 08:54:20;;;;;;;0.88;0.88;;;;;;;10.08;71.70;101452.81;5075347;28;20138;-77
2024/03/05 08:56:47;;;;;;;0.75;0.75;;;;;;;10.12;71.53;101458.09;5074817;28;20044;-77
2024/03/05 08:59:14;;;;;;;0.32;0.32;;;;;;;10.14;71.58;101455.44;5070989;28;20447;-76
2024/03/05 09:01:40;;;;;;;1.50;1.33;;;;;;;10.14;71.68;101458.06;5074682;28;20032;-76
2024/03/05 09:04:06;;;;;;;0.22;0.22;;;;;;;10.17;71.47;101458.94;5075281;28;20033;-77
2024/03/05 09:06:33;;;;;;;0.15;0.15;;;;;;;10.16;71.83;101454.53;5074630;28;20097;-77
2024/03/05 09:08:59;;;;;;;0.40;0.40;;;;;;;10.22;71.47;101463.31;5076181;28;20035;-78
2024/03/05 09:11:26;;;;;;;0.88;0.85;;;;;;;10.23;71.41;101463.31;5076327;28;20040;-78
2024/03/05 09:13:55;;;;;;;0.20;0.20;;;;;;;10.27;71.38;101465.03;5075300;28;20051;-78
2024/03/05 09:16:23;;;;;;;2.53;1.30;;;;;;;10.30;71.42;101454.41;5074232;28;20043;-79
2024/03/05 09:18:49;;;;;;;0.30;0.30;;;;;;;10.31;71.22;101458.81;5075232;28;20123;-79
2024/03/05 09:21:16;;;;;;;0.17;0.17;;;;;;;10.31;71.57;101460.59;5075608;28;20401;-78
2024/03/05 09:23:42;;;;;;;0.95;0.93;;;;;;;10.33;71.25;101470.28;5071815;28;20125;-78
2024/03/05 09:26:08;;;;;;;0.20;0.20;;;;;;;10.35;71.40;101468.50;5074970;28;20017;-78
2024/03/05 09:28:37;;;;;;;0.10;0.10;;;;;;;10.36;71.49;101464.97;5074577;28;20031;-78
2024/03/05 09:31:04;;;;;;;1.30;1.10;;;;;;;10.33;71.64;101462.31;5075883;28;20535;-79
2024/03/05 09:33:30;;;;;;;0.17;0.17;;;;;;;10.35;71.29;101459.66;5077852;28;20024;-79
2024/03/05 09:35:58;;;;;;;0.30;0.30;;;;;;;10.36;71.67;101461.44;5078391;28;20032;-83
2024/03/05 09:38:25;;;;;;;3.65;2.33;;;;;;;10.41;71.32;101467.59;5078464;28;20029;-78
2024/03/05 09:40:53;;;;;;;0.82;0.82;;;;;;;10.45;71.30;101468.44;5075441;28;20076;-79
2024/03/05 09:43:22;;;;;;;1.27;1.20;;;;;;;10.48;71.19;101468.38;5075905;28;20028;-78
2024/03/05 09:45:50;;;;;;;2.30;1.60;;;;;;;10.48;71.44;101476.34;5074181;28;20040;-78
2024/03/05 09:48:17;;;;;;;0.30;0.30;;;;;;;10.48;71.14;101485.19;5075303;28;20031;-80
2024/03/05 09:50:45;;;;;;;0.93;0.93;;;;;;;10.50;71.57;101479.88;5075964;28;20024;-79
2024/03/05 09:53:12;;;;;;;0.20;0.20;;;;;;;10.52;71.29;101475.44;5076139;28;20480;-81
2024/03/05 09:55:39;;;;;;;2.22;1.02;;;;;;;10.52;71.40;101480.75;5075355;28;20032;-80
2024/03/05 09:58:10;;;;;;;0.20;0.20;;;;;;;10.59;70.85;101474.50;5075189;28;20039;-80
2024/03/05 10:00:42;;;;;;;0.52;0.52;;;;;;;10.64;71.11;101480.63;5077846;28;20028;-79
2024/03/05 10:03:11;;;;;;;3.13;2.97;;;;;;;10.67;71.25;101479.72;5079559;28;20027;-79
2024/03/05 10:05:38;;;;;;;0.20;0.20;;;;;;;10.66;71.18;101478.81;5083072;28;20035;-79
2024/03/05 10:08:05;;;;;;;2.50;1.85;;;;;;;10.68;70.76;101477.03;5077435;28;20097;-80
2024/03/05 10:10:33;;;;;;;2.88;1.75;;;;;;;10.76;70.83;101476.94;5076374;28;20031;-80
2024/03/05 10:13:01;;;;;;;0.15;0.15;;;;;;;10.83;70.76;101489.25;5070107;28;20048;-80
2024/03/05 10:15:30;;;;;;;0.40;0.40;;;;;;;10.88;70.55;101473.31;5077199;28;20020;-79
2024/03/05 10:17:57;;;;;;;6.82;2.33;;;;;;;10.95;70.63;101472.34;5077528;28;20103;-80
2024/03/05 10:23:04;;;;;;;0.73;0.73;;;;;;;11.07;70.85;101483.69;5124667;27;20125;-79
2024/03/05 10:25:34;;;;;;;1.77;1.67;;;;;;;11.13;70.19;101495.09;5118622;28;20464;-82
2024/03/05 10:28:02;;;;;;;2.70;2.53;;;;;;;11.10;70.12;101494.25;5117479;28;20410;-80
2024/03/05 10:30:31;;;;;;;21.63;2.72;;;;;;;11.14;69.08;101488.00;5112688;28;20019;-80
2024/03/05 10:35:37;;;;;;;1.38;1.35;;;;;;;11.24;69.52;101497.63;5111178;27;20384;-77
2024/03/05 10:38:07;;;;;;;0.95;0.57;;;;;;;11.31;69.01;101494.00;5102106;28;20023;-77
2024/03/05 10:40:37;;;;;;;0.63;0.63;;;;;;;11.23;67.35;101503.81;5109697;28;20027;-77
2024/03/05 10:43:05;;;;;;;0.68;0.65;;;;;;;11.26;67.10;101503.78;5102765;28;20028;-78
2024/03/05 10:45:40;;;;;;;0.55;0.55;;;;;;;11.27;67.39;101508.19;5097121;28;20032;-78
2024/03/05 10:48:12;;;;;;;0.30;0.30;;;;;;;11.31;67.53;101509.94;5095545;28;20077;-78
2024/03/05 10:50:41;;;;;;;0.40;0.40;;;;;;;11.27;66.25;101508.19;5106615;28;20020;-77
2024/03/05 10:53:10;;;;;;;0.98;0.98;;;;;;;11.27;66.16;101513.50;5105984;28;20333;-77
2024/03/05 10:55:36;;;;;;;0.28;0.28;;;;;;;11.26;65.79;101511.72;5108475;28;20071;-78
2024/03/05 11:00:52;;;;;;;0.75;0.75;;;;;;;11.23;65.03;101514.44;5111062;27;20424;-80
2024/03/05 11:03:36;;;;;;;0.10;0.10;;;;;;;11.35;65.54;101515.19;5109509;28;20038;-79
2024/03/05 11:06:03;;;;;;;0.30;0.30;;;;;;;11.28;65.81;101511.75;5103472;28;20036;-79
2024/03/05 11:08:31;;;;;;;0.63;0.63;;;;;;;11.27;64.66;101512.63;5111233;28;20051;-81
2024/03/05 11:11:05;;;;;;;2.05;1.65;;;;;;;11.33;66.09;101502.81;5095574;28;20034;-80
2024/03/05 11:13:33;;;;;;;0.25;0.25;;;;;;;11.29;65.88;101506.41;5097539;28;20020;-80
2024/03/05 11:16:02;;;;;;;0.32;0.32;;;;;;;11.29;64.76;101511.72;5103858;28;20487;-80
2024/03/05 11:18:31;;;;;;;0.15;0.15;;;;;;;11.35;65.05;101509.88;5110396;28;20032;-81
2024/03/05 11:21:04;;;;;;;0.65;0.65;;;;;;;11.35;64.53;101515.19;5104666;28;20042;-81
2024/03/05 11:23:32;;;;;;;0.80;0.80;;;;;;;11.36;64.71;101512.50;5113648;28;20031;-80
2024/03/05 11:26:03;;;;;;;0.45;0.45;;;;;;;11.37;64.30;101513.41;5110143;28;20028;-80
2024/03/05 11:28:30;;;;;;;2.67;1.10;;;;;;;11.40;64.16;101508.03;5102897;28;20064;-78
2024/03/05 11:33:58;;;;;;;0.10;0.10;;;;;;;11.47;64.13;101509.72;5125073;27;1231784;-80
2024/03/05 11:36:24;;;;;;;0.50;0.50;;;;;;;11.51;64.39;101497.28;5152953;27;20062;-80
2024/03/05 11:41:41;;;;;;;2.08;0.82;;;;;;;11.56;64.78;101514.03;5113045;27;20376;-80
2024/03/05 11:44:12;;;;;;;0.20;0.20;;;;;;;11.60;63.72;101511.31;5114173;28;20024;-80
2024/03/05 11:46:53;;;;;;;1.42;1.33;;;;;;;11.69;64.11;101510.31;5112888;28;20233;-80
2024/03/05 11:49:19;;;;;;;0.10;0.10;;;;;;;11.61;63.25;101513.09;5093147;28;20140;-80
2024/03/05 11:51:47;;;;;;;0.30;0.30;;;;;;;11.64;63.21;101515.69;5090696;28;20039;-78
2024/03/05 11:54:16;;;;;;;9.55;4.45;;;;;;;11.67;62.90;101516.53;5091033;28;20035;-80